Time;durP1;ratioP1;P1;durP2;ratioP2;P2;SDS_P1;SDS_P2;PMS_P1;PMS_P2;Temp;Humidity;BMP_temperature;BMP_pressure;BME280_temperature;BME280_humidity;BME280_pressure;Samples;Min_cycle;Max_cycle;Signal;HPM_P1;HPM_P2
2021/08/20 00:01:36;;;;;;;1.23;0.70;;;;;;;;;;5009474;28;20042;-50
2021/08/20 00:04:06;;;;;;;0.60;0.60;;;;;;;;;;5011419;28;20065;-49
2021/08/20 00:06:33;;;;;;;0.70;0.70;;;;;;;;;;5007421;28;20041;-51
2021/08/20 00:09:00;;;;;;;0.75;0.75;;;;;;;;;;5010680;28;20121;-50
2021/08/20 00:11:27;;;;;;;0.65;0.65;;;;;;;;;;5009769;28;20065;-47
2021/08/20 00:13:53;;;;;;;1.60;0.70;;;;;;;;;;5011612;28;20053;-50
2021/08/20 00:16:20;;;;;;;1.48;0.60;;;;;;;;;;5011125;28;20036;-48
2021/08/20 00:18:47;;;;;;;0.70;0.70;;;;;;;;;;5010203;28;20053;-50
2021/08/20 00:21:14;;;;;;;1.58;0.60;;;;;;;;;;5010359;28;20041;-49
2021/08/20 00:23:41;;;;;;;0.60;0.60;;;;;;;;;;5010036;28;20418;-48
2021/08/20 00:26:07;;;;;;;0.70;0.70;;;;;;;;;;5012829;28;20056;-47
2021/08/20 00:28:34;;;;;;;1.67;0.60;;;;;;;;;;5011454;28;20458;-50
2021/08/20 00:31:01;;;;;;;0.70;0.70;;;;;;;;;;5006879;28;20030;-49
2021/08/20 00:33:28;;;;;;;1.45;0.70;;;;;;;;;;5007774;28;20096;-48
2021/08/20 00:35:54;;;;;;;0.60;0.60;;;;;;;;;;5011384;28;20410;-49
2021/08/20 00:38:21;;;;;;;2.05;0.63;;;;;;;;;;5011462;28;20046;-48
2021/08/20 00:40:48;;;;;;;0.70;0.70;;;;;;;;;;5009471;28;20042;-49
2021/08/20 00:43:15;;;;;;;0.50;0.50;;;;;;;;;;5003917;28;20103;-50
2021/08/20 00:45:51;;;;;;;1.30;0.70;;;;;;;;;;5007047;28;20497;-49
2021/08/20 00:48:18;;;;;;;0.70;0.70;;;;;;;;;;4999358;28;20117;-49
2021/08/20 00:50:44;;;;;;;1.10;0.70;;;;;;;;;;5008220;28;20042;-50
2021/08/20 00:53:11;;;;;;;0.75;0.75;;;;;;;;;;5006044;28;20548;-49
2021/08/20 00:55:38;;;;;;;1.60;0.70;;;;;;;;;;4995001;28;20038;-49
2021/08/20 00:58:05;;;;;;;0.77;0.70;;;;;;;;;;5006778;28;20651;-50
2021/08/20 01:00:32;;;;;;;0.73;0.70;;;;;;;;;;5005072;28;20054;-48
2021/08/20 01:02:59;;;;;;;0.70;0.70;;;;;;;;;;5012742;28;20050;-47
2021/08/20 01:05:26;;;;;;;1.42;0.60;;;;;;;;;;5009618;28;20092;-50
2021/08/20 01:07:53;;;;;;;0.68;0.68;;;;;;;;;;5010223;28;20045;-49
2021/08/20 01:10:20;;;;;;;1.02;0.60;;;;;;;;;;5008235;28;20047;-49
2021/08/20 01:12:46;;;;;;;2.08;0.75;;;;;;;;;;5009292;28;20035;-48
2021/08/20 01:15:14;;;;;;;1.10;0.70;;;;;;;;;;5011781;28;20030;-50
2021/08/20 01:17:41;;;;;;;0.70;0.70;;;;;;;;;;5009712;28;20053;-49
2021/08/20 01:20:09;;;;;;;0.60;0.60;;;;;;;;;;4996679;28;20049;-49
2021/08/20 01:22:38;;;;;;;1.38;0.70;;;;;;;;;;5007112;28;20092;-49
2021/08/20 01:25:05;;;;;;;0.85;0.70;;;;;;;;;;5008975;28;20038;-51
2021/08/20 01:27:33;;;;;;;1.65;0.80;;;;;;;;;;5011081;28;20125;-49
2021/08/20 01:30:00;;;;;;;1.92;0.68;;;;;;;;;;5011441;28;20042;-47
2021/08/20 01:32:27;;;;;;;1.08;0.70;;;;;;;;;;5010196;28;20029;-50
2021/08/20 01:34:54;;;;;;;0.70;0.70;;;;;;;;;;5009523;28;20037;-49
2021/08/20 01:37:20;;;;;;;0.60;0.60;;;;;;;;;;5006617;28;20046;-47
2021/08/20 01:39:47;;;;;;;0.73;0.70;;;;;;;;;;5007692;28;20434;-49
2021/08/20 01:42:14;;;;;;;2.25;0.70;;;;;;;;;;5005116;28;20049;-49
2021/08/20 01:44:41;;;;;;;0.65;0.65;;;;;;;;;;5004377;28;20406;-49
2021/08/20 01:47:12;;;;;;;1.85;1.13;;;;;;;;;;5001496;28;20438;-50
2021/08/20 01:49:39;;;;;;;1.13;0.60;;;;;;;;;;5011435;28;20045;-48
2021/08/20 01:52:06;;;;;;;1.85;0.70;;;;;;;;;;5008813;28;20091;-48
2021/08/20 01:54:33;;;;;;;1.10;0.70;;;;;;;;;;4997146;28;20049;-49
2021/08/20 01:56:59;;;;;;;1.77;0.70;;;;;;;;;;5009625;28;20046;-47
2021/08/20 01:59:27;;;;;;;1.52;0.70;;;;;;;;;;5008141;28;20042;-47
2021/08/20 02:01:54;;;;;;;0.70;0.70;;;;;;;;;;5011487;28;20088;-49
2021/08/20 02:04:21;;;;;;;0.88;0.80;;;;;;;;;;5008386;28;20100;-50
2021/08/20 02:06:47;;;;;;;0.70;0.70;;;;;;;;;;4998757;28;20038;-46
2021/08/20 02:09:14;;;;;;;0.95;0.70;;;;;;;;;;5009855;28;20042;-49
2021/08/20 02:11:41;;;;;;;0.70;0.70;;;;;;;;;;5008000;28;20034;-50
2021/08/20 02:14:08;;;;;;;0.73;0.73;;;;;;;;;;5010190;28;20474;-50
2021/08/20 02:16:34;;;;;;;0.90;0.70;;;;;;;;;;5008047;28;20402;-50
2021/08/20 02:19:01;;;;;;;0.85;0.70;;;;;;;;;;5008848;28;20037;-49
2021/08/20 02:21:28;;;;;;;0.70;0.70;;;;;;;;;;5009344;28;20042;-48
2021/08/20 02:23:55;;;;;;;0.60;0.60;;;;;;;;;;5001152;28;20490;-49
2021/08/20 02:26:22;;;;;;;0.85;0.85;;;;;;;;;;5010577;28;20038;-47
2021/08/20 02:28:48;;;;;;;1.55;0.70;;;;;;;;;;5008749;28;20060;-49
2021/08/20 02:31:15;;;;;;;0.70;0.70;;;;;;;;;;4999797;28;20025;-49
2021/08/20 02:33:45;;;;;;;0.70;0.70;;;;;;;;;;5007581;28;20823;-46
2021/08/20 02:36:12;;;;;;;0.70;0.70;;;;;;;;;;5000411;28;20074;-48
2021/08/20 02:38:39;;;;;;;0.80;0.70;;;;;;;;;;5000753;28;20077;-47
2021/08/20 02:41:05;;;;;;;0.90;0.70;;;;;;;;;;5001003;28;20486;-47
2021/08/20 02:43:32;;;;;;;1.38;0.70;;;;;;;;;;5009307;28;20523;-48
2021/08/20 02:45:59;;;;;;;0.70;0.70;;;;;;;;;;5008115;28;20065;-47
2021/08/20 02:48:26;;;;;;;0.80;0.70;;;;;;;;;;5000802;28;20072;-48
2021/08/20 02:50:53;;;;;;;1.15;0.75;;;;;;;;;;5003530;28;20046;-48
2021/08/20 02:53:20;;;;;;;0.80;0.80;;;;;;;;;;4998856;28;20046;-48
2021/08/20 02:55:46;;;;;;;1.85;0.70;;;;;;;;;;5007010;28;20056;-49
2021/08/20 02:58:13;;;;;;;0.80;0.80;;;;;;;;;;5008196;28;20069;-51
2021/08/20 03:00:40;;;;;;;2.35;0.80;;;;;;;;;;5007355;28;20037;-48
2021/08/20 03:03:07;;;;;;;1.25;0.85;;;;;;;;;;5005948;28;20035;-48
2021/08/20 03:05:34;;;;;;;1.75;0.70;;;;;;;;;;5006508;28;20045;-48
2021/08/20 03:08:01;;;;;;;0.70;0.70;;;;;;;;;;5009195;28;20049;-49
2021/08/20 03:10:27;;;;;;;0.70;0.70;;;;;;;;;;5007005;28;20133;-50
2021/08/20 03:12:54;;;;;;;0.70;0.70;;;;;;;;;;5009562;28;20034;-49
2021/08/20 03:15:22;;;;;;;2.78;0.68;;;;;;;;;;5006782;28;20078;-49
2021/08/20 03:17:49;;;;;;;2.05;0.70;;;;;;;;;;5001749;28;20048;-50
2021/08/20 03:20:15;;;;;;;1.40;0.65;;;;;;;;;;5005707;28;20534;-48
2021/08/20 03:22:42;;;;;;;0.80;0.77;;;;;;;;;;5008485;28;20434;-50
2021/08/20 03:25:09;;;;;;;1.50;0.70;;;;;;;;;;5009315;28;20042;-47
2021/08/20 03:27:37;;;;;;;0.70;0.70;;;;;;;;;;5005721;28;20427;-51
2021/08/20 03:30:04;;;;;;;0.70;0.70;;;;;;;;;;4999122;28;20184;-49
2021/08/20 03:32:31;;;;;;;0.70;0.70;;;;;;;;;;5004096;28;20523;-48
2021/08/20 03:34:58;;;;;;;0.70;0.70;;;;;;;;;;5007752;28;20474;-50
2021/08/20 03:37:24;;;;;;;2.25;0.80;;;;;;;;;;5009089;28;20044;-47
2021/08/20 03:39:51;;;;;;;1.50;0.60;;;;;;;;;;5008562;28;20077;-48
2021/08/20 03:42:18;;;;;;;1.40;0.70;;;;;;;;;;5008122;28;20041;-47
2021/08/20 03:44:45;;;;;;;1.40;0.90;;;;;;;;;;5007280;28;20072;-47
2021/08/20 03:47:11;;;;;;;1.48;0.70;;;;;;;;;;5007320;28;20072;-50
2021/08/20 03:49:38;;;;;;;0.80;0.80;;;;;;;;;;5001136;28;20038;-47
2021/08/20 03:52:05;;;;;;;0.85;0.70;;;;;;;;;;5004362;28;20088;-49
2021/08/20 03:54:32;;;;;;;0.77;0.77;;;;;;;;;;5007993;28;20080;-47
2021/08/20 03:56:58;;;;;;;0.80;0.80;;;;;;;;;;5006921;28;20070;-49
2021/08/20 03:59:25;;;;;;;0.70;0.70;;;;;;;;;;5007491;28;20042;-50
2021/08/20 04:01:52;;;;;;;0.80;0.80;;;;;;;;;;4999700;28;20081;-48
2021/08/20 04:04:19;;;;;;;0.70;0.70;;;;;;;;;;4997261;28;20026;-49
2021/08/20 04:06:46;;;;;;;2.33;0.90;;;;;;;;;;5007118;28;20056;-48
2021/08/20 04:09:12;;;;;;;0.60;0.60;;;;;;;;;;5007608;28;20042;-49
2021/08/20 04:11:39;;;;;;;0.70;0.70;;;;;;;;;;5006638;28;20050;-51
2021/08/20 04:14:06;;;;;;;1.73;0.70;;;;;;;;;;5008401;28;20488;-49
2021/08/20 04:16:34;;;;;;;0.75;0.75;;;;;;;;;;5006878;28;20042;-49
2021/08/20 04:19:01;;;;;;;1.25;0.80;;;;;;;;;;5009598;28;20040;-49
2021/08/20 04:21:28;;;;;;;1.75;0.70;;;;;;;;;;5006367;28;20038;-49
2021/08/20 04:23:55;;;;;;;0.80;0.80;;;;;;;;;;5004975;28;20053;-50
2021/08/20 04:26:21;;;;;;;3.45;0.90;;;;;;;;;;5008514;28;20602;-51
2021/08/20 04:28:51;;;;;;;1.17;1.17;;;;;;;;;;4998739;28;20049;-51
2021/08/20 04:31:18;;;;;;;0.80;0.80;;;;;;;;;;5011542;28;20042;-51
2021/08/20 04:33:45;;;;;;;0.75;0.70;;;;;;;;;;5007906;28;20431;-49
2021/08/20 04:36:12;;;;;;;1.70;0.80;;;;;;;;;;5001225;28;20042;-48
2021/08/20 04:38:40;;;;;;;0.90;0.77;;;;;;;;;;5008953;28;20085;-49
2021/08/20 04:41:07;;;;;;;0.80;0.80;;;;;;;;;;5003824;28;20560;-49
2021/08/20 04:43:37;;;;;;;1.23;0.82;;;;;;;;;;5011575;28;20073;-47
2021/08/20 04:46:04;;;;;;;1.55;1.20;;;;;;;;;;5010803;28;20422;-49
2021/08/20 04:48:31;;;;;;;0.90;0.70;;;;;;;;;;4998044;28;20125;-48
2021/08/20 04:50:58;;;;;;;1.92;0.80;;;;;;;;;;5008123;28;20501;-47
2021/08/20 04:53:29;;;;;;;0.73;0.73;;;;;;;;;;5011124;28;20054;-50
2021/08/20 04:55:59;;;;;;;1.23;0.80;;;;;;;;;;5010337;28;20048;-50
2021/08/20 04:58:29;;;;;;;0.90;0.90;;;;;;;;;;5009204;28;20462;-47
2021/08/20 05:00:56;;;;;;;1.30;0.80;;;;;;;;;;5007572;28;20085;-50
2021/08/20 05:03:23;;;;;;;2.35;0.70;;;;;;;;;;5007786;28;20073;-48
2021/08/20 05:05:51;;;;;;;0.75;0.75;;;;;;;;;;4998346;28;20121;-47
2021/08/20 05:08:18;;;;;;;1.52;0.70;;;;;;;;;;5005900;28;20153;-48
2021/08/20 05:10:44;;;;;;;0.80;0.80;;;;;;;;;;5004186;28;20132;-49
2021/08/20 05:13:11;;;;;;;3.15;0.80;;;;;;;;;;5009806;28;20042;-48
2021/08/20 05:15:38;;;;;;;3.88;1.40;;;;;;;;;;5009578;28;20088;-46
2021/08/20 05:18:05;;;;;;;1.65;0.88;;;;;;;;;;5010273;28;20042;-53
2021/08/20 05:20:31;;;;;;;7.63;1.20;;;;;;;;;;5007496;28;20124;-56
2021/08/20 05:22:58;;;;;;;3.22;0.80;;;;;;;;;;4997239;28;20045;-56
2021/08/20 05:25:26;;;;;;;0.82;0.82;;;;;;;;;;5008196;28;20045;-55
2021/08/20 05:27:53;;;;;;;1.23;0.80;;;;;;;;;;5002695;28;20030;-55
2021/08/20 05:30:20;;;;;;;0.77;0.77;;;;;;;;;;5009242;28;20047;-55
2021/08/20 05:32:46;;;;;;;1.17;0.77;;;;;;;;;;5009100;28;20084;-55
2021/08/20 05:35:14;;;;;;;0.70;0.70;;;;;;;;;;5008669;28;20069;-56
2021/08/20 05:37:42;;;;;;;2.00;0.80;;;;;;;;;;5008869;28;20514;-54
2021/08/20 05:40:09;;;;;;;0.80;0.80;;;;;;;;;;5008863;28;20049;-56
2021/08/20 05:42:36;;;;;;;1.42;0.80;;;;;;;;;;5011244;28;20129;-56
2021/08/20 05:45:03;;;;;;;1.70;0.80;;;;;;;;;;5008254;28;20479;-55
2021/08/20 05:47:30;;;;;;;0.80;0.80;;;;;;;;;;4992516;28;20033;-56
2021/08/20 05:49:57;;;;;;;2.85;1.48;;;;;;;;;;5010991;28;20430;-56
2021/08/20 05:52:24;;;;;;;0.88;0.77;;;;;;;;;;5014497;28;20042;-55
2021/08/20 05:54:51;;;;;;;0.93;0.80;;;;;;;;;;4991829;28;20107;-56
2021/08/20 05:57:18;;;;;;;3.25;0.70;;;;;;;;;;5009968;28;20403;-56
2021/08/20 05:59:45;;;;;;;0.70;0.70;;;;;;;;;;5010237;28;20446;-56
2021/08/20 06:02:12;;;;;;;3.03;0.82;;;;;;;;;;5005710;28;20035;-56
2021/08/20 06:04:39;;;;;;;1.70;0.73;;;;;;;;;;4996687;28;20033;-54
2021/08/20 06:07:07;;;;;;;7.65;0.70;;;;;;;;;;5010302;28;20072;-56
2021/08/20 06:09:34;;;;;;;3.08;0.80;;;;;;;;;;5007723;28;20371;-55
2021/08/20 06:12:01;;;;;;;1.92;0.80;;;;;;;;;;5003656;28;20034;-56
2021/08/20 06:14:28;;;;;;;4.90;1.80;;;;;;;;;;5007048;28;20406;-55
2021/08/20 06:16:55;;;;;;;2.38;0.90;;;;;;;;;;4994109;28;20046;-55
2021/08/20 06:19:22;;;;;;;2.72;0.80;;;;;;;;;;5010301;28;20042;-55
2021/08/20 06:21:49;;;;;;;0.85;0.75;;;;;;;;;;5007751;28;20093;-56
2021/08/20 06:24:16;;;;;;;0.85;0.85;;;;;;;;;;5010437;28;20061;-58
2021/08/20 06:26:46;;;;;;;1.05;0.80;;;;;;;;;;5009163;28;20049;-58
2021/08/20 06:29:20;;;;;;;0.70;0.70;;;;;;;;;;5004908;28;20146;-58
2021/08/20 06:31:47;;;;;;;0.80;0.80;;;;;;;;;;5010879;28;20068;-57
2021/08/20 06:34:14;;;;;;;3.50;0.93;;;;;;;;;;5009209;28;20036;-58
2021/08/20 06:36:42;;;;;;;2.40;1.00;;;;;;;;;;5007755;28;20045;-57
2021/08/20 06:39:09;;;;;;;0.88;0.88;;;;;;;;;;5007670;28;20133;-58
2021/08/20 06:41:36;;;;;;;0.80;0.80;;;;;;;;;;5000003;28;20049;-59
2021/08/20 06:44:03;;;;;;;2.35;0.90;;;;;;;;;;5002622;28;20030;-58
2021/08/20 06:46:29;;;;;;;2.70;0.80;;;;;;;;;;4997682;28;20032;-58
2021/08/20 06:48:56;;;;;;;0.80;0.80;;;;;;;;;;5009389;28;20041;-58
2021/08/20 06:51:23;;;;;;;0.75;0.75;;;;;;;;;;5008631;28;20057;-57
2021/08/20 06:53:50;;;;;;;1.70;0.70;;;;;;;;;;5007263;28;20050;-58
2021/08/20 06:56:16;;;;;;;1.27;0.95;;;;;;;;;;5006523;28;20038;-58
2021/08/20 06:58:43;;;;;;;0.75;0.75;;;;;;;;;;4995444;28;20038;-58
2021/08/20 07:01:10;;;;;;;1.95;0.88;;;;;;;;;;5010694;28;20045;-58
2021/08/20 07:03:37;;;;;;;2.45;0.70;;;;;;;;;;5008951;28;20120;-57
2021/08/20 07:06:04;;;;;;;2.30;1.02;;;;;;;;;;5008394;28;20489;-58
2021/08/20 07:08:31;;;;;;;1.00;1.00;;;;;;;;;;5006835;28;20121;-57
2021/08/20 07:10:58;;;;;;;2.55;0.90;;;;;;;;;;5006793;28;20045;-58
2021/08/20 07:13:25;;;;;;;0.90;0.90;;;;;;;;;;5008740;28;20042;-58
2021/08/20 07:15:52;;;;;;;0.82;0.82;;;;;;;;;;5009876;28;20041;-59
2021/08/20 07:18:18;;;;;;;0.60;0.60;;;;;;;;;;5009737;28;20056;-58
2021/08/20 07:20:45;;;;;;;0.73;0.65;;;;;;;;;;5008287;28;20035;-57
2021/08/20 07:23:12;;;;;;;0.90;0.70;;;;;;;;;;4998481;28;20482;-58
2021/08/20 07:25:39;;;;;;;1.50;0.70;;;;;;;;;;5006135;28;20118;-59
2021/08/20 07:28:05;;;;;;;0.85;0.82;;;;;;;;;;4997825;28;20033;-57
2021/08/20 07:30:32;;;;;;;2.15;0.70;;;;;;;;;;5009799;28;20046;-58
2021/08/20 07:32:59;;;;;;;0.90;0.90;;;;;;;;;;5008601;28;20033;-58
2021/08/20 07:35:26;;;;;;;0.60;0.60;;;;;;;;;;4998290;28;20410;-58
2021/08/20 07:37:53;;;;;;;0.95;0.60;;;;;;;;;;5006608;28;20383;-57
2021/08/20 07:40:19;;;;;;;1.85;0.70;;;;;;;;;;4995312;28;20085;-58
2021/08/20 07:42:46;;;;;;;0.60;0.60;;;;;;;;;;5010296;28;20061;-58
2021/08/20 07:45:14;;;;;;;2.80;0.60;;;;;;;;;;5008307;28;20587;-58
2021/08/20 07:47:47;;;;;;;0.80;0.57;;;;;;;;;;4996634;28;20042;-58
2021/08/20 07:50:14;;;;;;;0.50;0.50;;;;;;;;;;5007899;28;20038;-59
2021/08/20 07:52:41;;;;;;;0.52;0.52;;;;;;;;;;4995922;28;20125;-58
2021/08/20 07:55:08;;;;;;;0.60;0.60;;;;;;;;;;5009045;28;20053;-58
2021/08/20 07:57:51;;;;;;;0.80;0.60;;;;;;;;;;5003916;28;20049;-58
2021/08/20 08:00:20;;;;;;;0.70;0.70;;;;;;;;;;4992894;28;20065;-58
2021/08/20 08:02:47;;;;;;;0.60;0.60;;;;;;;;;;5012345;28;20490;-58
2021/08/20 08:05:14;;;;;;;0.65;0.50;;;;;;;;;;5012241;28;20044;-59
2021/08/20 08:07:41;;;;;;;0.60;0.60;;;;;;;;;;5011701;28;20133;-58
2021/08/20 08:10:08;;;;;;;0.52;0.52;;;;;;;;;;5011806;28;20034;-58
2021/08/20 08:12:35;;;;;;;2.15;0.50;;;;;;;;;;5028442;28;20040;-59
2021/08/20 08:15:02;;;;;;;2.40;0.50;;;;;;;;;;5009748;28;20058;-57
2021/08/20 08:17:28;;;;;;;0.80;0.50;;;;;;;;;;5011586;28;20490;-59
2021/08/20 08:19:55;;;;;;;0.60;0.60;;;;;;;;;;5003093;28;20085;-58
2021/08/20 08:22:22;;;;;;;0.50;0.50;;;;;;;;;;5003798;28;20407;-58
2021/08/20 08:24:49;;;;;;;0.50;0.50;;;;;;;;;;5010442;28;20077;-57
2021/08/20 08:27:15;;;;;;;0.50;0.50;;;;;;;;;;5007427;28;20129;-59
2021/08/20 08:29:42;;;;;;;0.75;0.50;;;;;;;;;;5005214;28;20042;-59
2021/08/20 08:32:09;;;;;;;0.40;0.40;;;;;;;;;;5011266;28;20049;-58
2021/08/20 08:34:35;;;;;;;0.45;0.45;;;;;;;;;;5011059;28;20073;-58
2021/08/20 08:37:02;;;;;;;0.80;0.50;;;;;;;;;;5011603;28;20099;-58
2021/08/20 08:39:29;;;;;;;0.88;0.40;;;;;;;;;;5010167;28;20081;-59
2021/08/20 08:41:56;;;;;;;0.40;0.40;;;;;;;;;;5008635;28;20042;-58
2021/08/20 08:44:22;;;;;;;0.60;0.40;;;;;;;;;;5007303;28;20422;-58
2021/08/20 08:46:50;;;;;;;0.40;0.40;;;;;;;;;;4996858;28;20488;-59
2021/08/20 08:49:21;;;;;;;0.40;0.40;;;;;;;;;;5011673;28;20038;-58
2021/08/20 08:51:48;;;;;;;0.73;0.30;;;;;;;;;;5009562;28;20042;-58
2021/08/20 08:54:16;;;;;;;0.40;0.40;;;;;;;;;;5010448;28;20117;-59
2021/08/20 08:56:46;;;;;;;2.15;0.40;;;;;;;;;;5010984;28;20042;-58
2021/08/20 08:59:14;;;;;;;0.40;0.40;;;;;;;;;;5008977;28;20038;-58
2021/08/20 09:01:42;;;;;;;0.40;0.40;;;;;;;;;;5002633;28;20100;-58
2021/08/20 09:04:10;;;;;;;3.70;0.30;;;;;;;;;;5001158;28;20100;-57
2021/08/20 09:06:41;;;;;;;1.35;0.40;;;;;;;;;;5012282;28;20370;-58
2021/08/20 09:09:09;;;;;;;0.40;0.40;;;;;;;;;;5009900;28;20046;-58
2021/08/20 09:11:36;;;;;;;0.50;0.50;;;;;;;;;;5003000;28;20406;-58
2021/08/20 09:14:03;;;;;;;1.15;0.40;;;;;;;;;;5004699;28;20034;-57
2021/08/20 09:16:37;;;;;;;1.10;0.30;;;;;;;;;;5000867;28;20084;-58
2021/08/20 09:19:07;;;;;;;0.30;0.30;;;;;;;;;;5010601;28;20042;-58
2021/08/20 09:21:34;;;;;;;0.30;0.30;;;;;;;;;;5006149;28;20460;-59
2021/08/20 09:24:01;;;;;;;0.57;0.40;;;;;;;;;;5001197;28;20085;-59
2021/08/20 09:26:28;;;;;;;0.43;0.40;;;;;;;;;;5008405;28;20089;-59
2021/08/20 09:29:10;;;;;;;1.30;0.30;;;;;;;;;;5015863;28;20041;-59
2021/08/20 09:31:48;;;;;;;1.25;0.40;;;;;;;;;;5011700;28;20096;-59
2021/08/20 09:34:15;;;;;;;4.03;0.40;;;;;;;;;;5008735;28;20061;-58
2021/08/20 09:36:42;;;;;;;1.55;0.40;;;;;;;;;;5010093;28;20038;-58
2021/08/20 09:39:08;;;;;;;2.30;0.40;;;;;;;;;;5007167;28;20057;-56
2021/08/20 09:41:37;;;;;;;0.30;0.30;;;;;;;;;;5009377;28;20049;-56
2021/08/20 09:44:08;;;;;;;0.38;0.38;;;;;;;;;;5010093;28;20046;-56
2021/08/20 09:46:45;;;;;;;0.40;0.40;;;;;;;;;;5006394;28;20589;-55
2021/08/20 09:49:14;;;;;;;0.50;0.40;;;;;;;;;;4996714;28;20728;-56
2021/08/20 09:51:42;;;;;;;3.13;0.50;;;;;;;;;;5010336;28;20104;-56
2021/08/20 09:54:17;;;;;;;0.30;0.30;;;;;;;;;;5004327;28;20280;-55
2021/08/20 09:56:59;;;;;;;0.40;0.40;;;;;;;;;;4991565;28;20046;-58
2021/08/20 09:59:29;;;;;;;0.30;0.30;;;;;;;;;;5009784;28;20073;-57
2021/08/20 10:01:57;;;;;;;0.40;0.40;;;;;;;;;;5008739;28;20075;-56
2021/08/20 10:04:24;;;;;;;0.30;0.30;;;;;;;;;;5011978;28;20049;-56
2021/08/20 10:06:52;;;;;;;3.17;1.65;;;;;;;;;;5010044;28;20038;-56
2021/08/20 10:09:20;;;;;;;2.78;0.40;;;;;;;;;;4998014;28;20483;-58
2021/08/20 10:11:48;;;;;;;0.40;0.40;;;;;;;;;;5005532;28;20085;-56
2021/08/20 10:14:17;;;;;;;1.20;0.30;;;;;;;;;;4996703;28;20088;-56
2021/08/20 10:16:43;;;;;;;0.40;0.40;;;;;;;;;;4999870;28;20069;-56
2021/08/20 10:19:11;;;;;;;0.73;0.30;;;;;;;;;;5005851;28;20057;-56
2021/08/20 10:21:39;;;;;;;1.20;0.40;;;;;;;;;;4991542;28;20054;-57
2021/08/20 10:24:07;;;;;;;1.10;0.40;;;;;;;;;;5003623;28;20053;-56
2021/08/20 10:26:38;;;;;;;2.20;0.40;;;;;;;;;;4995761;28;20536;-56
2021/08/20 10:29:06;;;;;;;0.40;0.40;;;;;;;;;;5010137;28;20045;-56
2021/08/20 10:31:33;;;;;;;0.77;0.40;;;;;;;;;;5007032;28;20137;-56
2021/08/20 10:34:00;;;;;;;1.05;0.40;;;;;;;;;;5010529;28;20042;-57
2021/08/20 10:36:37;;;;;;;1.10;0.35;;;;;;;;;;5007749;28;20050;-57
2021/08/20 10:39:04;;;;;;;0.40;0.40;;;;;;;;;;4999604;28;20593;-56
2021/08/20 10:41:31;;;;;;;4.63;0.45;;;;;;;;;;5005584;28;20042;-56
2021/08/20 10:44:15;;;;;;;1.30;0.50;;;;;;;;;;5014129;28;20468;-57
2021/08/20 10:46:42;;;;;;;0.40;0.40;;;;;;;;;;5009477;28;20034;-56
2021/08/20 10:51:51;;;;;;;1.75;0.50;;;;;;;;;;5007786;28;20374;-56
2021/08/20 10:54:31;;;;;;;0.77;0.47;;;;;;;;;;5008743;28;20042;-56
2021/08/20 10:56:58;;;;;;;0.50;0.50;;;;;;;;;;5009369;28;20532;-57
2021/08/20 10:59:54;;;;;;;0.50;0.47;;;;;;;;;;4992636;28;20053;-57
2021/08/20 11:02:23;;;;;;;0.43;0.40;;;;;;;;;;5004695;28;20513;-56
2021/08/20 11:05:06;;;;;;;1.00;0.40;;;;;;;;;;5001246;28;20091;-57
2021/08/20 11:07:33;;;;;;;1.00;0.30;;;;;;;;;;4992694;28;20740;-57
2021/08/20 11:10:01;;;;;;;0.40;0.40;;;;;;;;;;5005265;28;20042;-56
2021/08/20 11:12:42;;;;;;;1.08;0.50;;;;;;;;;;4994014;28;20049;-57
2021/08/20 11:15:19;;;;;;;0.60;0.40;;;;;;;;;;5003958;28;20038;-57
2021/08/20 11:17:56;;;;;;;0.50;0.40;;;;;;;;;;5008988;28;20049;-56
2021/08/20 11:20:25;;;;;;;0.57;0.40;;;;;;;;;;5002988;28;20044;-57
2021/08/20 11:25:47;;;;;;;1.40;0.40;;;;;;;;;;5004571;28;20060;-56
2021/08/20 11:28:18;;;;;;;0.32;0.32;;;;;;;;;;5000278;28;20050;-57
2021/08/20 11:30:55;;;;;;;0.67;0.40;;;;;;;;;;5004490;28;20082;-57
2021/08/20 11:33:23;;;;;;;0.40;0.40;;;;;;;;;;4993811;28;20050;-57
2021/08/20 11:35:52;;;;;;;0.50;0.40;;;;;;;;;;5010962;28;20034;-56
2021/08/20 11:38:27;;;;;;;0.40;0.40;;;;;;;;;;5012056;28;20050;-56
2021/08/20 11:40:55;;;;;;;0.40;0.40;;;;;;;;;;5008000;28;20073;-56
2021/08/20 11:43:49;;;;;;;0.60;0.60;;;;;;;;;;5009093;28;20034;-56
2021/08/20 11:46:16;;;;;;;0.70;0.40;;;;;;;;;;5000692;28;20061;-56
2021/08/20 11:48:44;;;;;;;1.55;0.40;;;;;;;;;;5013299;28;20069;-56
2021/08/20 11:51:11;;;;;;;0.40;0.40;;;;;;;;;;5012366;28;20038;-56
2021/08/20 11:53:39;;;;;;;0.30;0.30;;;;;;;;;;5002552;28;20040;-56
2021/08/20 11:56:15;;;;;;;1.45;0.40;;;;;;;;;;5011386;28;20069;-57
2021/08/20 11:58:45;;;;;;;1.30;0.40;;;;;;;;;;5010844;28;20038;-55
2021/08/20 12:01:20;;;;;;;0.40;0.40;;;;;;;;;;5013555;28;20050;-56
2021/08/20 12:03:49;;;;;;;0.50;0.40;;;;;;;;;;5011360;28;20116;-57
2021/08/20 12:06:16;;;;;;;0.43;0.40;;;;;;;;;;5011806;28;20102;-57
2021/08/20 12:08:44;;;;;;;0.55;0.40;;;;;;;;;;5012202;28;20034;-56
2021/08/20 12:11:11;;;;;;;0.40;0.40;;;;;;;;;;4999690;28;20037;-56
2021/08/20 12:13:41;;;;;;;0.40;0.40;;;;;;;;;;5013578;28;20048;-56
2021/08/20 12:16:08;;;;;;;0.40;0.40;;;;;;;;;;5011575;28;20050;-56
2021/08/20 12:18:39;;;;;;;1.25;0.43;;;;;;;;;;5007667;28;20040;-56
2021/08/20 12:21:12;;;;;;;1.13;0.30;;;;;;;;;;5011089;28;20038;-57
2021/08/20 12:23:55;;;;;;;0.65;0.40;;;;;;;;;;5003976;28;20568;-56
2021/08/20 12:26:21;;;;;;;0.40;0.40;;;;;;;;;;4999350;28;20129;-56
2021/08/20 12:28:50;;;;;;;0.40;0.40;;;;;;;;;;5007176;28;20449;-56
2021/08/20 12:31:20;;;;;;;0.55;0.40;;;;;;;;;;5010507;28;20117;-56
2021/08/20 12:34:00;;;;;;;0.40;0.40;;;;;;;;;;5010545;28;20421;-57
2021/08/20 12:36:27;;;;;;;0.40;0.40;;;;;;;;;;5000037;28;20072;-55
2021/08/20 12:39:26;;;;;;;0.52;0.40;;;;;;;;;;5005242;28;20556;-56
2021/08/20 12:41:53;;;;;;;0.40;0.40;;;;;;;;;;5017028;28;20058;-56
2021/08/20 12:44:29;;;;;;;0.40;0.40;;;;;;;;;;4998893;28;20096;-56
2021/08/20 12:47:05;;;;;;;0.40;0.40;;;;;;;;;;5009364;28;20046;-57
2021/08/20 12:49:32;;;;;;;0.70;0.35;;;;;;;;;;5006160;28;20040;-56
2021/08/20 12:51:59;;;;;;;0.82;0.40;;;;;;;;;;5003960;28;20450;-56
2021/08/20 12:54:30;;;;;;;0.35;0.35;;;;;;;;;;5010126;28;20042;-56
2021/08/20 12:57:03;;;;;;;0.63;0.40;;;;;;;;;;5004940;28;20091;-56
2021/08/20 12:59:30;;;;;;;0.40;0.40;;;;;;;;;;5000926;28;20121;-56
2021/08/20 13:01:57;;;;;;;0.40;0.40;;;;;;;;;;5006020;28;20434;-57
2021/08/20 13:04:24;;;;;;;0.40;0.30;;;;;;;;;;5005136;28;20042;-56
2021/08/20 13:06:51;;;;;;;0.40;0.40;;;;;;;;;;5008313;28;20041;-57
2021/08/20 13:09:18;;;;;;;1.05;0.40;;;;;;;;;;5010428;28;20046;-57
2021/08/20 13:11:49;;;;;;;1.55;0.47;;;;;;;;;;5003086;28;20076;-57
2021/08/20 13:14:16;;;;;;;0.35;0.30;;;;;;;;;;5003641;28;20041;-57
2021/08/20 13:16:42;;;;;;;0.32;0.32;;;;;;;;;;5002455;28;20046;-56
2021/08/20 13:19:09;;;;;;;0.45;0.35;;;;;;;;;;5006516;28;20597;-56
2021/08/20 13:21:36;;;;;;;0.47;0.40;;;;;;;;;;5010741;28;20040;-56
2021/08/20 13:24:03;;;;;;;0.40;0.40;;;;;;;;;;5002227;28;20042;-55
2021/08/20 13:26:30;;;;;;;0.40;0.40;;;;;;;;;;5001062;28;20038;-56
2021/08/20 13:28:56;;;;;;;0.47;0.47;;;;;;;;;;4998209;28;20037;-55
2021/08/20 13:31:23;;;;;;;0.40;0.40;;;;;;;;;;5006794;28;20042;-56
2021/08/20 13:33:51;;;;;;;0.30;0.30;;;;;;;;;;4998995;28;20654;-57
2021/08/20 13:36:18;;;;;;;0.40;0.40;;;;;;;;;;5009256;28;20876;-57
2021/08/20 13:38:46;;;;;;;0.45;0.40;;;;;;;;;;5010628;28;20482;-56
2021/08/20 13:41:12;;;;;;;5.50;0.43;;;;;;;;;;4999686;28;20042;-57
2021/08/20 13:43:39;;;;;;;0.40;0.40;;;;;;;;;;5007907;28;20034;-56
2021/08/20 13:46:06;;;;;;;0.40;0.40;;;;;;;;;;4999078;28;20471;-57
2021/08/20 13:48:33;;;;;;;0.63;0.30;;;;;;;;;;5006149;28;20044;-57
2021/08/20 13:50:59;;;;;;;0.50;0.40;;;;;;;;;;4996260;28;20124;-55
2021/08/20 13:53:26;;;;;;;1.33;0.40;;;;;;;;;;5012033;28;20482;-56
2021/08/20 13:55:53;;;;;;;1.48;0.35;;;;;;;;;;5008713;28;20038;-56
2021/08/20 13:58:20;;;;;;;1.65;0.30;;;;;;;;;;5002948;28;20092;-55
2021/08/20 14:00:46;;;;;;;2.15;0.77;;;;;;;;;;5005072;28;20066;-55
2021/08/20 14:03:14;;;;;;;0.77;0.32;;;;;;;;;;4995355;28;20038;-55
2021/08/20 14:05:42;;;;;;;0.45;0.40;;;;;;;;;;5010644;28;20053;-56
2021/08/20 14:08:09;;;;;;;0.30;0.30;;;;;;;;;;5008583;28;20065;-55
2021/08/20 14:10:38;;;;;;;0.40;0.40;;;;;;;;;;5010498;28;20092;-56
2021/08/20 14:13:05;;;;;;;0.85;0.40;;;;;;;;;;5009316;28;20046;-56
2021/08/20 14:15:32;;;;;;;0.98;0.40;;;;;;;;;;5006177;28;20764;-55
2021/08/20 14:18:03;;;;;;;0.40;0.40;;;;;;;;;;5006801;28;20044;-56
2021/08/20 14:20:30;;;;;;;0.60;0.50;;;;;;;;;;5009369;28;20050;-56
2021/08/20 14:22:56;;;;;;;0.30;0.30;;;;;;;;;;5008034;28;20066;-55
2021/08/20 14:25:23;;;;;;;0.40;0.40;;;;;;;;;;5004744;28;20073;-56
2021/08/20 14:27:50;;;;;;;2.25;0.32;;;;;;;;;;5002240;28;20034;-56
2021/08/20 14:30:18;;;;;;;0.40;0.40;;;;;;;;;;5008469;28;20038;-57
2021/08/20 14:32:44;;;;;;;1.17;0.40;;;;;;;;;;5005119;28;20053;-56
2021/08/20 14:35:11;;;;;;;0.60;0.60;;;;;;;;;;5000797;28;20073;-56
2021/08/20 14:37:38;;;;;;;0.40;0.40;;;;;;;;;;5001588;28;20037;-57
2021/08/20 14:40:05;;;;;;;0.80;0.40;;;;;;;;;;4999193;28;20134;-56
2021/08/20 14:42:32;;;;;;;0.68;0.40;;;;;;;;;;5007958;28;20038;-56
2021/08/20 14:45:02;;;;;;;1.05;0.75;;;;;;;;;;5008634;28;20050;-57
2021/08/20 14:47:29;;;;;;;0.40;0.40;;;;;;;;;;5006847;28;20041;-56
2021/08/20 14:49:56;;;;;;;1.48;0.40;;;;;;;;;;5008532;28;20034;-55
2021/08/20 14:52:23;;;;;;;0.30;0.30;;;;;;;;;;5009200;28;20056;-56
2021/08/20 14:54:49;;;;;;;0.40;0.40;;;;;;;;;;5007663;28;20040;-55